Time;durP1;ratioP1;P1;durP2;ratioP2;P2;SDS_P1;SDS_P2;PMS_P1;PMS_P2;Temp;Humidity;BMP_temperature;BMP_pressure;BME280_temperature;BME280_humidity;BME280_pressure;Samples;Min_cycle;Max_cycle;Signal;HPM_P1;HPM_P2
2023/10/20 00:02:13;;;;;;;36.67;18.25;;;7.70;99.90;;;;;;5100887;28;20024;-73
2023/10/20 00:04:38;;;;;;;35.08;18.70;;;7.70;99.90;;;;;;5101528;28;20063;-74
2023/10/20 00:07:04;;;;;;;36.20;19.02;;;7.70;99.90;;;;;;5100307;28;20377;-73
2023/10/20 00:09:29;;;;;;;34.92;18.38;;;7.70;99.90;;;;;;5101342;28;20147;-73
2023/10/20 00:11:55;;;;;;;38.13;19.42;;;7.70;99.90;;;;;;5101301;28;20016;-74
2023/10/20 00:14:21;;;;;;;33.45;18.33;;;7.70;99.90;;;;;;5101446;28;20028;-74
2023/10/20 00:16:46;;;;;;;34.45;18.08;;;7.70;99.90;;;;;;5100842;28;20035;-75
2023/10/20 00:19:12;;;;;;;34.47;18.75;;;7.70;99.90;;;;;;5100196;28;20028;-73
2023/10/20 00:21:39;;;;;;;36.40;18.98;;;7.70;99.90;;;;;;5099713;28;20016;-73
2023/10/20 00:24:05;;;;;;;31.50;17.80;;;7.60;99.90;;;;;;5101142;28;20086;-75
2023/10/20 00:26:30;;;;;;;35.92;19.15;;;7.70;99.90;;;;;;5101350;28;20503;-73
2023/10/20 00:28:56;;;;;;;37.95;18.73;;;7.70;99.90;;;;;;5101058;28;20024;-73
2023/10/20 00:31:23;;;;;;;36.88;18.73;;;7.70;99.90;;;;;;5100553;28;20066;-73
2023/10/20 00:33:50;;;;;;;35.00;18.60;;;7.80;99.90;;;;;;5100830;28;20028;-73
2023/10/20 00:36:17;;;;;;;32.47;17.50;;;7.70;99.90;;;;;;5101332;28;20031;-74
2023/10/20 00:38:43;;;;;;;34.42;18.38;;;7.60;99.90;;;;;;5100769;28;20020;-74
2023/10/20 00:41:08;;;;;;;36.40;18.30;;;7.70;99.90;;;;;;5101227;28;20012;-74
2023/10/20 00:43:38;;;;;;;37.08;19.70;;;7.60;99.90;;;;;;5100897;28;20136;-72
2023/10/20 00:46:08;;;;;;;34.85;17.60;;;7.60;99.90;;;;;;5100812;28;20044;-73
2023/10/20 00:48:35;;;;;;;32.33;17.30;;;7.60;99.90;;;;;;5099970;28;20024;-71
2023/10/20 00:51:01;;;;;;;33.88;18.77;;;7.60;99.90;;;;;;5102028;28;20013;-76
2023/10/20 00:53:29;;;;;;;34.05;18.70;;;7.50;99.90;;;;;;5099268;28;20020;-73
2023/10/20 00:55:58;;;;;;;36.78;18.50;;;7.60;99.90;;;;;;5100722;28;20056;-73
2023/10/20 00:58:25;;;;;;;33.85;18.83;;;7.60;99.90;;;;;;5100452;28;20042;-72
2023/10/20 01:00:52;;;;;;;38.10;18.42;;;7.70;99.90;;;;;;5100431;28;20032;-74
2023/10/20 01:03:17;;;;;;;31.95;16.92;;;7.60;99.90;;;;;;5101018;28;20051;-74
2023/10/20 01:05:43;;;;;;;32.28;16.98;;;7.60;99.90;;;;;;5099772;28;20024;-72
2023/10/20 01:08:09;;;;;;;32.03;17.75;;;7.60;99.90;;;;;;5100719;28;20027;-74
2023/10/20 01:10:35;;;;;;;30.48;17.25;;;7.70;99.90;;;;;;5102619;28;20047;-72
2023/10/20 01:13:00;;;;;;;31.45;17.10;;;7.70;99.90;;;;;;5104717;28;20036;-73
2023/10/20 01:15:27;;;;;;;27.48;16.10;;;7.70;99.90;;;;;;5103130;28;20438;-72
2023/10/20 01:17:52;;;;;;;31.13;16.75;;;7.70;99.90;;;;;;5102699;28;20609;-72
2023/10/20 01:20:18;;;;;;;32.22;17.45;;;7.70;99.90;;;;;;5103884;28;20083;-72
2023/10/20 01:22:44;;;;;;;30.00;16.95;;;7.70;99.90;;;;;;5104350;28;20099;-73
2023/10/20 01:25:11;;;;;;;27.77;15.75;;;7.70;99.90;;;;;;5102878;28;20027;-73
2023/10/20 01:27:37;;;;;;;28.13;15.63;;;7.70;99.90;;;;;;5102728;28;20065;-73
2023/10/20 01:30:04;;;;;;;26.13;15.27;;;7.70;99.90;;;;;;5102497;28;20016;-72
2023/10/20 01:32:30;;;;;;;25.08;14.43;;;7.70;99.90;;;;;;5104542;28;20048;-72
2023/10/20 01:34:55;;;;;;;26.23;14.65;;;7.70;99.90;;;;;;5103753;28;20031;-73
2023/10/20 01:37:21;;;;;;;25.83;14.57;;;7.70;99.90;;;;;;5103162;28;20028;-74
2023/10/20 01:39:47;;;;;;;22.88;13.55;;;7.60;99.90;;;;;;5103019;28;20079;-74
2023/10/20 01:42:13;;;;;;;20.00;12.70;;;7.60;99.90;;;;;;5103974;28;20122;-73
2023/10/20 01:44:38;;;;;;;23.58;13.82;;;7.60;99.90;;;;;;5104396;28;20036;-73
2023/10/20 01:47:04;;;;;;;20.02;12.60;;;7.70;99.90;;;;;;5104257;28;20054;-74
2023/10/20 01:49:30;;;;;;;19.58;12.57;;;7.60;99.90;;;;;;5103748;28;20054;-73
2023/10/20 01:51:56;;;;;;;25.35;11.23;;;7.60;99.90;;;;;;5102471;28;20024;-74
2023/10/20 01:54:23;;;;;;;19.65;12.02;;;7.80;99.90;;;;;;5103475;28;20059;-74
2023/10/20 01:56:49;;;;;;;19.33;12.02;;;7.60;99.90;;;;;;5104033;28;20044;-75
2023/10/20 01:59:15;;;;;;;18.88;11.77;;;7.60;99.90;;;;;;5102752;28;20039;-74
2023/10/20 02:01:41;;;;;;;17.17;11.27;;;7.60;99.90;;;;;;5102424;28;20016;-74
2023/10/20 02:04:07;;;;;;;17.45;11.57;;;7.70;99.90;;;;;;5102780;28;20082;-73
2023/10/20 02:06:34;;;;;;;18.40;11.18;;;7.60;99.90;;;;;;5102061;28;20043;-72
2023/10/20 02:09:00;;;;;;;17.48;11.13;;;7.80;99.90;;;;;;5102373;28;20028;-74
2023/10/20 02:11:25;;;;;;;18.88;11.38;;;7.60;99.90;;;;;;5104608;28;20020;-74
2023/10/20 02:13:51;;;;;;;17.45;11.23;;;7.60;99.90;;;;;;5102917;28;20403;-74
2023/10/20 02:16:17;;;;;;;17.48;10.85;;;7.70;99.90;;;;;;5104366;28;20094;-73
2023/10/20 02:18:42;;;;;;;18.35;11.45;;;7.60;99.90;;;;;;5103020;28;20031;-72
2023/10/20 02:21:09;;;;;;;17.40;10.35;;;7.60;99.90;;;;;;5103563;28;20020;-73
2023/10/20 02:23:36;;;;;;;15.05;9.75;;;7.60;99.90;;;;;;5102145;28;20489;-73
2023/10/20 02:26:07;;;;;;;16.60;9.90;;;7.50;99.90;;;;;;5103158;28;20028;-77
2023/10/20 02:28:36;;;;;;;13.60;9.40;;;7.60;99.90;;;;;;5101902;28;20674;-73
2023/10/20 02:31:13;;;;;;;14.40;9.18;;;7.60;99.90;;;;;;5101731;28;20027;-74
2023/10/20 02:33:39;;;;;;;14.85;8.95;;;7.60;99.90;;;;;;5101707;28;20051;-74
2023/10/20 02:36:05;;;;;;;12.80;8.73;;;7.60;99.90;;;;;;5101939;28;20425;-74
2023/10/20 02:38:30;;;;;;;12.98;8.52;;;7.60;99.90;;;;;;5103129;28;20016;-77
2023/10/20 02:40:56;;;;;;;13.50;8.15;;;7.70;99.90;;;;;;5103888;28;20050;-76
2023/10/20 02:43:22;;;;;;;13.38;8.65;;;7.70;99.90;;;;;;5102479;28;20051;-73
2023/10/20 02:45:52;;;;;;;13.02;8.15;;;7.50;99.90;;;;;;5102991;28;20031;-75
2023/10/20 02:48:22;;;;;;;12.77;7.80;;;7.70;99.90;;;;;;5101758;28;20028;-77
2023/10/20 02:50:48;;;;;;;12.85;8.55;;;7.70;99.90;;;;;;5101355;28;20089;-74
2023/10/20 02:53:14;;;;;;;10.88;7.45;;;7.60;99.90;;;;;;5101359;28;20020;-73
2023/10/20 02:55:43;;;;;;;11.38;6.93;;;7.60;99.90;;;;;;5101459;28;20040;-72
2023/10/20 02:58:12;;;;;;;11.95;7.10;;;7.60;99.90;;;;;;5101453;28;20031;-72
2023/10/20 03:00:45;;;;;;;9.40;6.35;;;7.70;99.90;;;;;;5099439;28;20188;-74
2023/10/20 03:03:11;;;;;;;10.15;6.45;;;7.60;99.90;;;;;;5102693;28;20523;-74
2023/10/20 03:05:37;;;;;;;11.40;7.18;;;7.60;99.90;;;;;;5102151;28;20035;-74
2023/10/20 03:08:04;;;;;;;10.45;6.47;;;7.70;99.90;;;;;;5102319;28;20200;-76
2023/10/20 03:10:30;;;;;;;8.90;6.57;;;7.60;99.90;;;;;;5102510;28;20048;-72
2023/10/20 03:12:55;;;;;;;10.45;6.55;;;7.70;99.90;;;;;;5100954;28;20046;-74
2023/10/20 03:15:21;;;;;;;8.82;5.90;;;7.70;99.90;;;;;;5101081;28;20425;-75
2023/10/20 03:17:46;;;;;;;10.43;6.03;;;7.70;99.90;;;;;;5102676;28;20088;-76
2023/10/20 03:20:17;;;;;;;9.90;6.10;;;7.70;99.90;;;;;;5100430;28;20056;-71
2023/10/20 03:22:42;;;;;;;9.38;6.20;;;7.70;99.90;;;;;;5102317;28;20046;-75
2023/10/20 03:25:10;;;;;;;9.40;6.47;;;7.70;99.90;;;;;;5101143;28;20024;-78
2023/10/20 03:27:37;;;;;;;9.15;6.25;;;7.70;99.90;;;;;;5102087;28;20613;-72
2023/10/20 03:30:05;;;;;;;9.35;6.00;;;7.70;99.90;;;;;;5102019;28;20054;-73
2023/10/20 03:32:31;;;;;;;9.23;5.65;;;7.70;99.90;;;;;;5099954;28;20396;-73
2023/10/20 03:34:56;;;;;;;7.85;5.75;;;7.70;99.90;;;;;;5102192;28;20020;-76
2023/10/20 03:37:22;;;;;;;13.15;5.68;;;7.80;99.90;;;;;;5100829;28;20042;-76
2023/10/20 03:39:49;;;;;;;7.93;5.20;;;7.70;99.90;;;;;;5101068;28;20023;-75
2023/10/20 03:42:15;;;;;;;7.32;4.70;;;7.70;99.90;;;;;;5101790;28;20040;-76
2023/10/20 03:44:42;;;;;;;7.00;4.88;;;7.70;99.90;;;;;;5101496;28;20023;-74
2023/10/20 03:47:08;;;;;;;6.22;4.43;;;7.70;99.90;;;;;;5101130;28;20024;-73
2023/10/20 03:49:35;;;;;;;6.03;4.20;;;7.70;99.90;;;;;;5100131;28;20503;-73
2023/10/20 03:52:01;;;;;;;7.05;4.20;;;7.70;99.90;;;;;;5100575;28;20043;-74
2023/10/20 03:54:30;;;;;;;5.05;3.88;;;7.70;99.90;;;;;;5099944;28;20020;-74
2023/10/20 03:56:56;;;;;;;4.88;3.40;;;7.60;99.90;;;;;;5101945;28;20020;-76
2023/10/20 03:59:24;;;;;;;4.97;3.33;;;7.70;99.90;;;;;;5100989;28;20020;-74
2023/10/20 04:01:51;;;;;;;4.35;3.00;;;7.70;99.90;;;;;;5100129;28;20762;-75
2023/10/20 04:04:17;;;;;;;4.53;3.15;;;7.70;99.90;;;;;;5102075;28;20084;-76
2023/10/20 04:06:44;;;;;;;4.80;3.08;;;7.70;99.90;;;;;;5100063;28;20020;-75
2023/10/20 04:09:10;;;;;;;4.05;2.97;;;7.80;99.90;;;;;;5101375;28;20465;-77
2023/10/20 04:11:36;;;;;;;4.28;2.58;;;7.60;99.90;;;;;;5100200;28;20636;-73
2023/10/20 04:14:05;;;;;;;5.55;2.70;;;7.70;99.90;;;;;;5100619;28;20146;-73
2023/10/20 04:16:37;;;;;;;4.90;2.38;;;7.70;99.90;;;;;;5099773;28;20086;-74
2023/10/20 04:19:04;;;;;;;4.60;2.80;;;7.70;99.90;;;;;;5101716;28;20034;-76
2023/10/20 04:21:30;;;;;;;3.72;2.55;;;7.70;99.90;;;;;;5100596;28;20027;-77
2023/10/20 04:23:56;;;;;;;4.63;2.38;;;7.70;99.90;;;;;;5100162;28;20040;-73
2023/10/20 04:26:22;;;;;;;3.53;2.63;;;7.60;99.90;;;;;;5101320;28;20024;-74
2023/10/20 04:28:56;;;;;;;4.60;2.63;;;7.50;99.90;;;;;;5099661;28;20031;-75
2023/10/20 05:07:57;;;;;;;5.05;3.15;;;7.50;99.90;;;;;;5104450;28;20465;-77
2023/10/20 05:10:23;;;;;;;9.13;3.20;;;7.50;99.90;;;;;;5101570;28;20119;-74
2023/10/20 05:12:50;;;;;;;6.18;3.55;;;7.50;99.90;;;;;;5104555;28;20016;-73
2023/10/20 05:15:17;;;;;;;6.53;3.53;;;7.50;99.90;;;;;;5104381;28;20028;-73
2023/10/20 05:17:43;;;;;;;4.32;2.90;;;7.50;99.90;;;;;;5103088;28;20051;-74
2023/10/20 05:20:10;;;;;;;5.40;3.05;;;7.60;99.90;;;;;;5103408;28;20028;-75
2023/10/20 05:22:35;;;;;;;5.25;3.33;;;7.50;99.90;;;;;;5102664;28;20543;-72
2023/10/20 05:25:04;;;;;;;5.45;3.50;;;7.60;99.90;;;;;;5104312;28;20028;-72
2023/10/20 05:27:30;;;;;;;4.47;2.97;;;7.50;99.90;;;;;;5104637;28;20030;-73
2023/10/20 05:29:55;;;;;;;4.90;3.05;;;7.50;99.90;;;;;;5105231;28;20080;-75
2023/10/20 05:32:21;;;;;;;7.45;3.50;;;7.50;99.90;;;;;;5105063;28;20031;-75
2023/10/20 05:34:47;;;;;;;8.32;3.17;;;7.40;99.90;;;;;;5104658;28;20158;-74
2023/10/20 05:37:13;;;;;;;7.32;3.60;;;7.40;99.90;;;;;;5102819;28;20127;-74
2023/10/20 05:39:40;;;;;;;7.10;3.30;;;7.40;99.90;;;;;;5103517;28;21119;-71
2023/10/20 05:42:05;;;;;;;6.30;3.28;;;7.60;99.90;;;;;;5103973;28;20107;-70
2023/10/20 05:44:32;;;;;;;5.88;3.67;;;7.40;99.90;;;;;;5104151;28;20027;-76
2023/10/20 05:46:57;;;;;;;6.70;3.90;;;7.40;99.90;;;;;;5103697;28;20016;-76
2023/10/20 05:49:23;;;;;;;6.15;3.63;;;7.40;99.90;;;;;;5102770;28;20023;-77
2023/10/20 05:51:51;;;;;;;8.23;3.92;;;7.30;99.90;;;;;;5098697;28;20070;-75
2023/10/20 05:54:17;;;;;;;7.00;3.55;;;7.30;99.90;;;;;;5102754;28;20025;-74
2023/10/20 05:56:43;;;;;;;8.32;4.03;;;7.30;99.90;;;;;;5102943;28;20537;-76
2023/10/20 05:59:08;;;;;;;8.30;3.85;;;7.30;99.90;;;;;;5102312;28;20035;-74
2023/10/20 06:01:34;;;;;;;6.32;3.88;;;7.30;99.90;;;;;;5102449;28;20024;-74
2023/10/20 06:04:00;;;;;;;6.78;3.72;;;7.30;99.90;;;;;;5104904;28;20028;-73
2023/10/20 06:06:25;;;;;;;7.40;4.30;;;7.30;99.90;;;;;;5104236;28;20108;-74
2023/10/20 06:08:51;;;;;;;12.30;4.00;;;7.30;99.90;;;;;;5104160;28;20036;-74
2023/10/20 06:11:17;;;;;;;6.45;3.90;;;7.30;99.90;;;;;;5104692;28;20591;-73
2023/10/20 06:13:42;;;;;;;6.40;4.00;;;7.30;99.90;;;;;;5103724;28;20012;-74
2023/10/20 06:16:09;;;;;;;7.47;4.55;;;7.30;99.90;;;;;;5104016;28;20024;-74
2023/10/20 06:18:40;;;;;;;6.82;4.53;;;7.30;99.90;;;;;;5101944;28;20024;-71
2023/10/20 06:21:11;;;;;;;7.22;4.13;;;7.30;99.90;;;;;;5102850;28;20701;-74
2023/10/20 06:23:37;;;;;;;5.90;4.10;;;7.20;99.90;;;;;;5103387;28;20122;-75
2023/10/20 06:26:02;;;;;;;6.72;3.78;;;7.20;99.90;;;;;;5103436;28;20016;-74
2023/10/20 06:28:28;;;;;;;6.85;4.07;;;7.20;99.90;;;;;;5102700;28;20048;-76
2023/10/20 06:30:57;;;;;;;5.88;3.97;;;7.30;99.90;;;;;;5103429;28;20058;-74
2023/10/20 06:33:25;;;;;;;6.32;3.85;;;7.20;99.90;;;;;;5102865;28;20020;-74
2023/10/20 06:35:51;;;;;;;5.72;3.20;;;7.20;99.90;;;;;;5102745;28;20024;-74
2023/10/20 06:38:44;;;;;;;4.97;3.60;;;7.20;99.90;;;;;;5102268;28;20026;-76
2023/10/20 06:41:13;;;;;;;7.72;3.60;;;7.20;99.90;;;;;;5103633;28;20034;-76
2023/10/20 06:43:43;;;;;;;8.13;4.07;;;7.20;99.90;;;;;;5101489;28;20072;-76
2023/10/20 06:46:09;;;;;;;6.78;3.75;;;7.20;99.90;;;;;;5101890;28;20020;-74
2023/10/20 06:48:35;;;;;;;5.70;3.50;;;7.20;99.90;;;;;;5101164;28;20295;-73
2023/10/20 06:51:01;;;;;;;6.75;3.72;;;7.20;99.90;;;;;;5102856;28;20066;-74
2023/10/20 06:53:28;;;;;;;6.55;3.67;;;7.20;99.90;;;;;;5103675;28;20036;-72
2023/10/20 06:55:54;;;;;;;5.28;3.53;;;7.20;99.90;;;;;;5102563;28;20054;-75
2023/10/20 06:58:19;;;;;;;5.80;3.65;;;7.20;99.90;;;;;;5102272;28;20448;-74
2023/10/20 07:00:45;;;;;;;5.70;3.67;;;7.20;99.90;;;;;;5103246;28;20048;-75
2023/10/20 07:03:14;;;;;;;6.32;3.33;;;7.20;99.90;;;;;;5102950;28;20036;-76
2023/10/20 07:05:41;;;;;;;4.05;3.03;;;7.10;99.90;;;;;;5102002;28;20362;-73
2023/10/20 07:08:07;;;;;;;5.93;2.60;;;7.10;99.90;;;;;;5102712;28;20019;-73
2023/10/20 07:10:37;;;;;;;8.30;3.17;;;7.10;99.90;;;;;;5103058;28;20024;-74
2023/10/20 07:13:10;;;;;;;6.30;2.83;;;7.10;99.90;;;;;;5100553;28;20100;-71
2023/10/20 07:15:36;;;;;;;4.40;3.00;;;7.10;99.90;;;;;;5100083;28;20083;-75
2023/10/20 07:18:03;;;;;;;5.32;3.17;;;7.10;99.90;;;;;;5101206;28;20258;-73
2023/10/20 07:20:30;;;;;;;5.13;2.95;;;7.10;99.90;;;;;;5102928;28;20024;-71
2023/10/20 07:22:56;;;;;;;5.85;3.22;;;7.10;99.90;;;;;;5102579;28;20035;-75
2023/10/20 07:25:22;;;;;;;4.15;2.90;;;7.20;99.90;;;;;;5099182;28;20365;-74
2023/10/20 07:27:48;;;;;;;5.50;3.08;;;7.10;99.90;;;;;;5101529;28;20074;-74
2023/10/20 07:30:16;;;;;;;6.30;3.40;;;7.10;99.90;;;;;;5102346;28;20028;-74
2023/10/20 07:32:43;;;;;;;7.90;3.30;;;7.20;99.90;;;;;;5103061;28;20024;-72
2023/10/20 07:35:11;;;;;;;6.22;3.10;;;7.10;99.90;;;;;;5103233;28;20032;-71
2023/10/20 07:37:37;;;;;;;6.40;2.85;;;7.10;99.90;;;;;;5101086;28;20382;-73
2023/10/20 07:40:07;;;;;;;5.15;3.00;;;7.20;99.90;;;;;;5103120;28;20016;-72
2023/10/20 07:42:33;;;;;;;5.65;2.88;;;7.10;99.90;;;;;;5099997;28;20059;-72
2023/10/20 07:45:00;;;;;;;4.78;2.63;;;7.10;99.90;;;;;;5097433;28;20024;-76
2023/10/20 07:47:26;;;;;;;4.43;2.40;;;7.10;99.90;;;;;;5098932;28;20020;-74
2023/10/20 07:49:52;;;;;;;4.70;2.42;;;7.10;99.90;;;;;;5100087;28;20028;-75
2023/10/20 07:52:19;;;;;;;2.50;1.88;;;7.00;99.90;;;;;;5099275;28;20088;-73
2023/10/20 07:54:45;;;;;;;2.85;1.80;;;7.00;99.90;;;;;;5097305;28;20131;-76
2023/10/20 07:57:12;;;;;;;7.60;2.00;;;7.00;99.90;;;;;;5100870;28;20052;-75
2023/10/20 07:59:39;;;;;;;2.78;1.80;;;7.00;99.90;;;;;;5101445;28;20012;-73
2023/10/20 08:02:05;;;;;;;3.53;2.03;;;6.90;99.90;;;;;;5101213;28;20028;-74
2023/10/20 08:04:32;;;;;;;3.60;1.95;;;7.00;99.90;;;;;;5101049;28;20024;-74
2023/10/20 08:06:59;;;;;;;4.43;1.73;;;6.90;99.90;;;;;;5100175;28;20020;-73
2023/10/20 08:09:26;;;;;;;6.53;1.88;;;7.10;99.90;;;;;;5101408;28;20029;-72
2023/10/20 08:11:54;;;;;;;2.38;1.65;;;7.00;99.90;;;;;;5102148;28;20036;-74
2023/10/20 08:14:20;;;;;;;3.72;1.90;;;7.00;99.90;;;;;;5100159;28;20016;-75
2023/10/20 08:16:47;;;;;;;3.05;1.90;;;7.00;99.90;;;;;;5101015;28;20023;-72
2023/10/20 08:19:13;;;;;;;3.78;1.80;;;7.00;99.90;;;;;;5100591;28;20088;-73
2023/10/20 08:21:39;;;;;;;5.65;2.60;;;7.10;99.90;;;;;;5101316;28;20067;-72
2023/10/20 08:24:06;;;;;;;3.42;1.88;;;6.90;99.90;;;;;;5101500;28;20036;-71
2023/10/20 08:26:32;;;;;;;2.97;1.88;;;6.90;99.90;;;;;;5100333;28;20031;-68
2023/10/20 08:28:58;;;;;;;3.78;1.92;;;6.90;99.90;;;;;;5100423;28;20024;-71
2023/10/20 08:31:25;;;;;;;6.38;1.92;;;6.90;99.90;;;;;;5098612;28;20527;-75
2023/10/20 08:33:52;;;;;;;2.90;1.90;;;6.90;99.90;;;;;;5101865;28;20019;-76
2023/10/20 08:36:22;;;;;;;5.20;2.10;;;6.90;99.90;;;;;;5098429;28;20027;-74
2023/10/20 08:38:51;;;;;;;5.35;2.20;;;6.90;99.90;;;;;;5100646;28;20032;-74
2023/10/20 08:41:23;;;;;;;4.00;1.90;;;6.90;99.90;;;;;;5101349;28;20028;-74
2023/10/20 08:43:50;;;;;;;3.63;2.10;;;6.80;99.90;;;;;;5100513;28;20061;-76
2023/10/20 08:46:17;;;;;;;3.35;1.90;;;6.80;99.90;;;;;;5100474;28;20063;-74
2023/10/20 08:48:44;;;;;;;2.80;1.90;;;6.80;99.90;;;;;;5101688;28;20024;-74
2023/10/20 08:51:12;;;;;;;4.53;2.15;;;6.90;99.90;;;;;;5100838;28;20024;-75
2023/10/20 08:53:38;;;;;;;3.60;2.10;;;6.80;99.90;;;;;;5101334;28;20024;-74
2023/10/20 08:56:06;;;;;;;4.85;2.40;;;6.80;99.90;;;;;;5100632;28;20048;-75
2023/10/20 08:58:33;;;;;;;4.07;2.15;;;6.80;99.90;;;;;;5101291;28;20020;-72
2023/10/20 09:00:59;;;;;;;6.72;2.33;;;6.90;99.90;;;;;;5099976;28;20023;-75
2023/10/20 09:03:48;;;;;;;4.63;1.80;;;6.80;99.90;;;;;;5101357;28;20039;-77
2023/10/20 09:06:14;;;;;;;4.43;1.95;;;6.80;99.90;;;;;;5099925;28;20040;-74
2023/10/20 09:08:43;;;;;;;8.68;2.45;;;6.70;99.90;;;;;;5099805;28;20126;-75
2023/10/20 09:11:10;;;;;;;5.78;2.60;;;6.80;99.90;;;;;;5100032;28;20111;-75
2023/10/20 09:13:40;;;;;;;5.57;2.55;;;6.80;99.90;;;;;;5100289;28;20016;-75
2023/10/20 09:16:07;;;;;;;5.15;2.28;;;6.70;99.90;;;;;;5095202;28;20029;-73
2023/10/20 09:18:47;;;;;;;5.07;2.67;;;6.70;99.90;;;;;;5099482;28;20153;-75
2023/10/20 09:21:18;;;;;;;4.60;2.70;;;6.60;99.90;;;;;;5100830;28;20036;-74
2023/10/20 09:24:00;;;;;;;5.85;2.65;;;6.70;99.90;;;;;;5099847;28;20040;-77
2023/10/20 09:26:27;;;;;;;4.70;2.60;;;6.70;99.90;;;;;;5100819;28;20135;-78
2023/10/20 09:28:54;;;;;;;6.40;2.92;;;6.70;99.90;;;;;;5098736;28;20396;-74
2023/10/20 09:31:20;;;;;;;6.45;3.00;;;6.80;99.90;;;;;;5101322;28;20049;-76
2023/10/20 09:33:46;;;;;;;5.20;3.28;;;6.70;99.90;;;;;;5104312;28;20012;-75
2023/10/20 09:36:12;;;;;;;6.00;3.00;;;6.70;99.90;;;;;;5103283;28;20048;-73
2023/10/20 09:38:38;;;;;;;6.28;3.08;;;6.60;99.90;;;;;;5103672;28;20022;-77
2023/10/20 09:41:15;;;;;;;6.45;3.13;;;6.70;99.90;;;;;;5104546;28;20420;-74
2023/10/20 09:43:52;;;;;;;5.05;2.70;;;6.70;99.90;;;;;;5102325;28;20051;-76
2023/10/20 09:46:55;;;;;;;4.93;3.10;;;6.70;99.90;;;;;;5101886;28;20020;-75
2023/10/20 09:49:25;;;;;;;5.38;3.05;;;6.80;99.90;;;;;;5100151;28;20055;-74
2023/10/20 09:51:51;;;;;;;6.57;2.88;;;6.80;99.90;;;;;;5102423;28;20030;-74
2023/10/20 09:54:21;;;;;;;7.22;2.92;;;6.80;99.90;;;;;;5102185;28;20077;-75
2023/10/20 09:56:49;;;;;;;6.05;3.38;;;6.70;99.90;;;;;;5103809;28;20020;-76
2023/10/20 09:59:18;;;;;;;8.45;3.35;;;6.70;99.90;;;;;;5101972;28;20094;-76
2023/10/20 10:01:45;;;;;;;6.50;2.78;;;6.80;99.90;;;;;;5103855;28;20024;-76
2023/10/20 10:04:11;;;;;;;5.45;3.00;;;6.80;99.90;;;;;;5103426;28;20036;-76
2023/10/20 10:06:37;;;;;;;5.88;3.28;;;6.80;99.90;;;;;;5102316;28;20035;-74
2023/10/20 10:09:04;;;;;;;6.28;3.40;;;6.80;99.90;;;;;;5104194;28;20040;-75
2023/10/20 10:11:34;;;;;;;7.72;3.67;;;6.70;99.90;;;;;;5103138;28;20020;-75
2023/10/20 10:14:02;;;;;;;6.93;3.58;;;6.70;99.90;;;;;;5103659;28;20016;-76
2023/10/20 10:16:28;;;;;;;7.72;3.90;;;6.70;99.90;;;;;;5103281;28;20024;-74
2023/10/20 10:18:57;;;;;;;7.45;3.78;;;6.70;99.90;;;;;;5102616;28;20035;-78
2023/10/20 10:21:29;;;;;;;8.85;3.72;;;6.70;99.90;;;;;;5102183;28;20020;-76
2023/10/20 10:24:16;;;;;;;6.65;3.50;;;6.70;99.90;;;;;;5102741;28;20122;-74
2023/10/20 10:27:04;;;;;;;8.60;4.10;;;6.80;99.90;;;;;;5103563;28;20024;-77
2023/10/20 10:29:50;;;;;;;8.75;3.80;;;6.80;99.90;;;;;;5102762;28;20425;-74
2023/10/20 10:32:20;;;;;;;6.00;3.50;;;6.80;99.90;;;;;;5102786;28;20049;-76
2023/10/20 10:34:53;;;;;;;6.03;3.83;;;6.90;99.90;;;;;;5103201;28;20017;-76
2023/10/20 10:37:37;;;;;;;6.63;3.80;;;6.80;99.90;;;;;;5102167;28;20023;-76
2023/10/20 10:40:10;;;;;;;5.87;3.47;;;6.80;99.90;;;;;;5102615;28;20038;-76
2023/10/20 10:42:42;;;;;;;7.27;4.07;;;6.80;99.90;;;;;;5100640;28;20035;-75
2023/10/20 10:45:23;;;;;;;6.18;3.42;;;6.80;99.90;;;;;;5101447;28;20036;-72
2023/10/20 10:47:51;;;;;;;5.47;3.35;;;6.80;99.90;;;;;;5100110;28;20051;-74
2023/10/20 10:50:20;;;;;;;6.88;3.70;;;7.00;99.90;;;;;;5103041;28;20032;-73
2023/10/20 10:52:46;;;;;;;5.68;3.72;;;6.80;99.90;;;;;;5102505;28;20158;-75
2023/10/20 10:55:13;;;;;;;6.32;3.38;;;6.80;99.90;;;;;;5102593;28;20052;-74
2023/10/20 10:57:41;;;;;;;5.95;3.47;;;6.80;99.90;;;;;;5102916;28;20379;-73
2023/10/20 11:00:08;;;;;;;6.55;3.35;;;6.80;99.90;;;;;;5102085;28;20024;-72
2023/10/20 11:02:34;;;;;;;8.35;3.22;;;6.80;99.90;;;;;;5101876;28;20057;-74
2023/10/20 11:05:01;;;;;;;6.38;3.45;;;6.80;99.90;;;;;;5101388;28;20027;-75
2023/10/20 11:07:26;;;;;;;7.70;3.20;;;6.80;99.90;;;;;;5101107;28;20024;-73
2023/10/20 11:09:53;;;;;;;5.18;3.30;;;6.80;99.90;;;;;;5100644;28;20055;-72
2023/10/20 11:12:22;;;;;;;8.55;3.45;;;6.80;99.90;;;;;;5101367;28;20130;-74
2023/10/20 11:14:47;;;;;;;6.90;3.90;;;6.80;99.90;;;;;;5100409;28;20056;-76
2023/10/20 11:17:14;;;;;;;5.93;3.40;;;6.80;99.90;;;;;;5102620;28;20020;-74
2023/10/20 11:19:40;;;;;;;6.45;3.42;;;6.80;99.90;;;;;;5102140;28;20113;-74
2023/10/20 11:22:15;;;;;;;6.93;3.40;;;6.70;99.90;;;;;;5101010;28;20047;-75
2023/10/20 11:24:41;;;;;;;7.40;3.55;;;6.80;99.90;;;;;;5101528;28;20070;-75
2023/10/20 11:27:07;;;;;;;5.50;3.30;;;6.80;99.90;;;;;;5101529;28;20028;-74
2023/10/20 11:29:35;;;;;;;4.63;3.00;;;6.80;99.90;;;;;;5100824;28;20059;-74
2023/10/20 11:32:05;;;;;;;7.05;3.20;;;6.80;99.90;;;;;;5099460;28;20046;-74
2023/10/20 11:34:35;;;;;;;4.85;2.95;;;6.80;99.90;;;;;;5099883;28;21092;-73
2023/10/20 11:37:02;;;;;;;6.38;2.83;;;6.80;99.90;;;;;;5098356;28;20116;-74
2023/10/20 11:39:28;;;;;;;5.00;3.00;;;6.80;99.90;;;;;;5101265;28;20042;-74
2023/10/20 11:41:55;;;;;;;5.07;3.13;;;6.80;99.90;;;;;;5099999;28;20341;-73
2023/10/20 11:44:24;;;;;;;5.72;3.30;;;6.80;99.90;;;;;;5101224;28;20028;-75
2023/10/20 11:46:52;;;;;;;5.15;3.20;;;6.70;99.90;;;;;;5099722;28;20020;-73
2023/10/20 11:49:18;;;;;;;7.47;3.03;;;6.70;99.90;;;;;;5100184;28;20065;-73
2023/10/20 11:51:44;;;;;;;6.47;3.00;;;6.70;99.90;;;;;;5101906;28;20024;-73
2023/10/20 11:54:10;;;;;;;5.60;2.70;;;6.70;99.90;;;;;;5100579;28;20061;-75
2023/10/20 11:56:36;;;;;;;3.80;2.25;;;6.70;99.90;;;;;;5100021;28;20036;-75
2023/10/20 11:59:02;;;;;;;13.70;2.92;;;6.70;99.90;;;;;;5101358;28;20053;-74
2023/10/20 12:01:28;;;;;;;8.88;2.95;;;6.70;99.90;;;;;;5099264;28;20020;-74
2023/10/20 12:03:54;;;;;;;5.82;2.70;;;6.80;99.90;;;;;;5100165;28;20074;-73
2023/10/20 12:06:20;;;;;;;4.53;2.78;;;6.70;99.90;;;;;;5101559;28;20020;-74
2023/10/20 12:08:45;;;;;;;5.40;2.95;;;6.70;99.90;;;;;;5100129;28;20113;-74
2023/10/20 12:11:11;;;;;;;8.68;3.67;;;6.70;99.90;;;;;;5101273;28;20482;-74
2023/10/20 12:13:36;;;;;;;7.50;3.05;;;6.70;99.90;;;;;;5101444;28;20023;-74
2023/10/20 12:16:04;;;;;;;6.95;3.65;;;6.70;99.90;;;;;;5099939;28;20043;-73
2023/10/20 12:18:30;;;;;;;5.65;2.85;;;6.70;99.90;;;;;;5099305;28;20028;-73
2023/10/20 12:20:56;;;;;;;5.22;3.22;;;6.70;99.90;;;;;;5101203;28;20020;-74
2023/10/20 12:23:21;;;;;;;5.13;3.15;;;6.70;99.90;;;;;;5099565;28;20032;-73
2023/10/20 12:25:47;;;;;;;6.13;3.10;;;6.70;99.90;;;;;;5101160;28;20026;-74
2023/10/20 12:28:12;;;;;;;6.22;2.88;;;6.60;99.90;;;;;;5101033;28;20039;-75
2023/10/20 12:30:38;;;;;;;5.18;2.60;;;6.70;99.90;;;;;;5100978;28;20064;-73
2023/10/20 12:33:05;;;;;;;5.80;2.70;;;6.70;99.90;;;;;;5098325;28;20036;-74
2023/10/20 12:35:31;;;;;;;5.70;2.80;;;6.70;99.90;;;;;;5099631;28;20063;-73
2023/10/20 12:37:57;;;;;;;6.65;2.45;;;6.80;99.90;;;;;;5100684;28;20020;-73
2023/10/20 12:40:22;;;;;;;9.13;2.78;;;6.80;99.90;;;;;;5101025;28;20072;-72
2023/10/20 12:42:49;;;;;;;12.65;3.00;;;6.80;99.90;;;;;;5101275;28;20119;-75
2023/10/20 12:45:16;;;;;;;4.05;2.42;;;6.70;99.90;;;;;;5099451;28;20050;-74
2023/10/20 12:47:42;;;;;;;2.78;2.17;;;6.70;99.90;;;;;;5101040;28;20550;-73
2023/10/20 12:50:08;;;;;;;5.68;2.50;;;6.70;99.90;;;;;;5100951;28;20076;-73
2023/10/20 12:52:34;;;;;;;4.00;2.40;;;6.70;99.90;;;;;;5100294;28;20095;-73
2023/10/20 12:55:00;;;;;;;4.15;2.40;;;6.70;99.90;;;;;;5100679;28;20044;-74
2023/10/20 12:57:26;;;;;;;3.97;2.20;;;6.70;99.90;;;;;;5101096;28;20039;-74
2023/10/20 12:59:52;;;;;;;3.20;2.08;;;6.70;99.90;;;;;;5100679;28;20029;-75
2023/10/20 13:02:18;;;;;;;4.43;1.95;;;6.70;99.90;;;;;;5101124;28;20105;-70
2023/10/20 13:04:43;;;;;;;3.53;2.00;;;6.70;99.90;;;;;;5099696;28;20389;-71
2023/10/20 13:07:09;;;;;;;4.30;2.10;;;6.70;99.90;;;;;;5103045;28;20016;-71
2023/10/20 13:09:35;;;;;;;3.55;2.22;;;6.70;99.90;;;;;;5104793;28;20046;-71
2023/10/20 13:12:00;;;;;;;6.03;2.00;;;6.70;99.90;;;;;;5103523;28;20024;-76
2023/10/20 13:14:29;;;;;;;3.55;2.03;;;6.70;99.90;;;;;;5104489;28;20024;-75
2023/10/20 13:16:55;;;;;;;3.20;2.13;;;6.70;99.90;;;;;;5104300;28;20024;-73
2023/10/20 13:19:20;;;;;;;4.50;2.22;;;6.70;99.90;;;;;;5103246;28;20602;-73
2023/10/20 13:21:47;;;;;;;3.45;2.10;;;6.70;99.90;;;;;;5104753;28;20036;-73
2023/10/20 13:24:12;;;;;;;3.38;1.95;;;6.70;99.90;;;;;;5103547;28;20035;-72
2023/10/20 13:26:38;;;;;;;3.45;2.13;;;6.70;99.90;;;;;;5103107;28;20042;-73
2023/10/20 13:29:04;;;;;;;4.65;2.30;;;6.80;99.90;;;;;;5104676;28;20045;-72
2023/10/20 13:31:31;;;;;;;3.38;2.10;;;6.80;99.90;;;;;;5104696;28;20020;-72